createdAt,value
2018-10-15T00:00:20.126Z,13.20
2018-10-15T00:02:49.811Z,13.17
2018-10-15T00:05:19.061Z,13.47
2018-10-15T00:07:48.339Z,14.70
2018-10-15T00:10:17.535Z,13.70
2018-10-15T00:12:47.287Z,12.90
2018-10-15T00:15:27.137Z,13.83
2018-10-15T00:17:57.139Z,12.93
2018-10-15T00:20:26.392Z,14.20
2018-10-15T00:22:55.947Z,14.23
2018-10-15T00:25:25.055Z,14.40
2018-10-15T00:27:54.180Z,14.00
2018-10-15T00:30:23.352Z,14.17
2018-10-15T00:32:52.482Z,14.83
2018-10-15T00:35:22.404Z,14.23
2018-10-15T00:37:51.505Z,15.30
2018-10-15T00:40:20.616Z,16.20
2018-10-15T00:42:50.264Z,15.63
2018-10-15T00:45:20.431Z,14.70
2018-10-15T00:47:50.201Z,15.17
2018-10-15T00:50:19.329Z,16.30
2018-10-15T00:52:48.456Z,13.97
2018-10-15T00:55:17.651Z,15.67
2018-10-15T00:57:46.767Z,15.33
2018-10-15T01:00:17.001Z,14.40
2018-10-15T01:02:47.007Z,15.00
2018-10-15T01:05:16.216Z,14.83
2018-10-15T01:07:45.403Z,14.57
2018-10-15T01:10:14.909Z,14.10
2018-10-15T01:12:44.118Z,15.20
2018-10-15T01:15:14.016Z,15.27
2018-10-15T01:17:43.262Z,15.10
2018-10-15T01:20:13.768Z,15.10
2018-10-15T01:22:43.194Z,15.43
2018-10-15T01:25:12.534Z,17.43
2018-10-15T01:27:41.674Z,15.23
2018-10-15T01:30:11.879Z,13.90
2018-10-15T01:32:41.460Z,14.37
2018-10-15T01:35:11.078Z,14.67
2018-10-15T01:37:40.334Z,14.90
2018-10-15T01:40:10.191Z,14.10
2018-10-15T01:42:39.409Z,13.73
2018-10-15T01:45:08.821Z,13.00
2018-10-15T01:47:38.313Z,12.70
2018-10-15T01:50:07.475Z,14.63
2018-10-15T01:52:36.784Z,12.83
2018-10-15T01:55:07.201Z,13.80
2018-10-15T01:57:36.419Z,13.00
2018-10-15T02:00:06.679Z,13.70
2018-10-15T02:02:35.836Z,13.80
2018-10-15T02:05:05.695Z,13.07
2018-10-15T02:07:34.838Z,13.60
2018-10-15T02:10:04.011Z,13.30
2018-10-15T02:12:34.430Z,12.90
2018-10-15T02:15:04.367Z,12.57
2018-10-15T02:17:33.469Z,12.87
2018-10-15T02:20:02.693Z,12.07
2018-10-15T02:22:31.870Z,13.03
2018-10-15T02:25:01.598Z,13.20
2018-10-15T02:27:30.916Z,13.60
2018-10-15T02:30:00.152Z,12.93
2018-10-15T02:32:29.297Z,14.40
2018-10-15T02:34:58.404Z,14.43
2018-10-15T02:37:27.635Z,12.40
2018-10-15T02:39:56.763Z,13.33
2018-10-15T02:42:25.880Z,13.20
2018-10-15T02:44:54.980Z,13.23
2018-10-15T02:47:24.088Z,13.30
2018-10-15T02:49:53.938Z,14.10
2018-10-15T02:52:23.077Z,14.33
2018-10-15T02:54:52.179Z,13.70
2018-10-15T02:57:21.939Z,15.37
2018-10-15T02:59:51.047Z,14.27
2018-10-15T03:02:20.180Z,14.97
2018-10-15T03:04:49.251Z,15.07
2018-10-15T03:07:19.022Z,15.03
2018-10-15T03:09:48.160Z,16.20
2018-10-15T03:12:17.397Z,15.30
2018-10-15T03:14:46.573Z,14.30
2018-10-15T03:17:15.683Z,15.00
2018-10-15T03:19:48.878Z,15.07
2018-10-15T03:22:17.930Z,14.50
2018-10-15T03:24:47.103Z,15.53
2018-10-15T03:27:16.684Z,15.43
2018-10-15T03:29:45.748Z,15.13
2018-10-15T03:32:14.933Z,15.43
2018-10-15T03:34:44.070Z,15.00
2018-10-15T03:37:13.187Z,12.60
2018-10-15T03:39:43.190Z,14.63
2018-10-15T03:42:12.295Z,14.77
2018-10-15T03:44:41.412Z,15.70
2018-10-15T03:47:11.084Z,14.10
2018-10-15T03:49:40.170Z,13.77
2018-10-15T03:52:09.258Z,13.73
2018-10-15T03:54:38.434Z,13.17
2018-10-15T03:57:07.526Z,13.77
2018-10-15T03:59:37.227Z,12.10
2018-10-15T04:02:06.932Z,12.67
2018-10-15T04:04:36.079Z,12.83
2018-10-15T04:07:05.880Z,12.73
2018-10-15T04:09:34.963Z,14.70
2018-10-15T04:12:04.514Z,12.53
2018-10-15T04:14:34.559Z,12.53
2018-10-15T04:17:03.642Z,14.57
2018-10-15T04:19:33.559Z,16.50
2018-10-15T04:22:02.729Z,15.70
2018-10-15T04:24:31.798Z,15.73
2018-10-15T04:27:00.995Z,15.20
2018-10-15T04:29:30.678Z,14.73
2018-10-15T04:31:59.838Z,14.00
2018-10-15T04:34:28.961Z,13.77
2018-10-15T04:36:58.058Z,12.90
2018-10-15T04:39:27.177Z,13.53
2018-10-15T04:41:56.916Z,12.87
2018-10-15T04:44:27.121Z,15.93
2018-10-15T04:46:56.761Z,13.43
2018-10-15T04:49:26.041Z,11.77
2018-10-15T04:51:54.984Z,12.80
2018-10-15T04:54:24.122Z,11.53
2018-10-15T04:56:53.218Z,11.67
2018-10-15T04:59:22.440Z,12.10
2018-10-15T05:01:51.572Z,12.23
2018-10-15T05:04:20.800Z,10.90
2018-10-15T05:06:50.528Z,16.20
2018-10-15T05:09:19.646Z,11.50
2018-10-15T05:11:49.758Z,12.57
2018-10-15T05:14:18.885Z,13.23
2018-10-15T05:16:48.207Z,12.43
2018-10-15T05:19:17.388Z,17.67
2018-10-15T05:21:46.491Z,14.33
2018-10-15T05:24:15.645Z,12.73
2018-10-15T05:26:45.362Z,14.27
2018-10-15T05:29:15.331Z,13.70
2018-10-15T05:31:44.426Z,13.80
2018-10-15T05:34:13.533Z,14.07
2018-10-15T05:36:43.462Z,14.27
2018-10-15T05:39:12.820Z,14.50
2018-10-15T05:41:42.004Z,17.43
2018-10-15T05:44:11.217Z,18.07
2018-10-15T05:46:40.714Z,15.57
2018-10-15T05:49:10.091Z,19.60
2018-10-15T05:51:39.218Z,15.87
2018-10-15T05:54:08.370Z,18.60
2018-10-15T05:56:38.087Z,17.83
2018-10-15T05:59:07.302Z,16.40
2018-10-15T06:01:36.442Z,17.53
2018-10-15T06:04:06.227Z,16.37
2018-10-15T06:06:35.284Z,17.00
2018-10-15T06:09:06.063Z,17.60
2018-10-15T06:11:35.232Z,16.77
2018-10-15T06:14:05.750Z,18.57
2018-10-15T06:16:36.260Z,16.00
2018-10-15T06:19:05.515Z,15.53
2018-10-15T06:21:34.696Z,23.83
2018-10-15T06:24:03.888Z,17.50
2018-10-15T06:26:33.823Z,16.97
2018-10-15T06:29:02.939Z,17.30
2018-10-15T06:33:58.553Z,14.63
2018-10-15T06:36:27.752Z,19.97
2018-10-15T06:38:57.812Z,18.37
2018-10-15T06:41:27.057Z,18.40
2018-10-15T06:43:57.597Z,19.17
2018-10-15T06:46:26.779Z,16.77
2018-10-15T06:48:55.984Z,16.73
2018-10-15T06:51:25.249Z,16.67
2018-10-15T06:53:54.329Z,20.87
2018-10-15T06:56:23.562Z,16.57
2018-10-15T06:58:52.797Z,23.40
2018-10-15T07:01:21.990Z,17.80
2018-10-15T07:03:51.114Z,14.77
2018-10-15T07:06:20.435Z,18.70
2018-10-15T07:08:50.760Z,15.13
2018-10-15T07:11:19.930Z,20.53
2018-10-15T07:13:49.190Z,18.40
2018-10-15T07:16:18.445Z,13.13
2018-10-15T07:18:47.532Z,13.80
2018-10-15T07:21:16.841Z,22.17
2018-10-15T07:23:46.050Z,16.47
2018-10-15T07:26:15.542Z,21.87
2018-10-15T07:28:45.454Z,12.03
2018-10-15T07:31:14.702Z,18.57
2018-10-15T07:33:43.992Z,16.53
2018-10-15T07:36:13.811Z,11.13
2018-10-15T07:38:43.673Z,10.13
2018-10-15T07:41:13.606Z,8.63
2018-10-15T07:43:42.845Z,13.27
2018-10-15T07:46:12.075Z,8.63
2018-10-15T07:48:41.213Z,10.20
2018-10-15T07:51:11.600Z,8.90
2018-10-15T07:53:41.135Z,9.67
2018-10-15T07:56:10.298Z,9.03
2018-10-15T07:58:39.636Z,9.30
2018-10-15T08:01:14.153Z,9.67
2018-10-15T08:03:43.669Z,9.20
2018-10-15T08:06:14.683Z,8.33
2018-10-15T08:08:44.334Z,8.03
2018-10-15T08:11:13.816Z,8.40
2018-10-15T08:13:44.786Z,9.40
2018-10-15T08:16:13.987Z,9.53
2018-10-15T08:18:43.895Z,8.23
2018-10-15T08:21:14.109Z,9.30
2018-10-15T08:23:43.248Z,11.40
2018-10-15T08:26:12.435Z,8.77
2018-10-15T08:28:41.643Z,8.93
2018-10-15T08:31:11.296Z,9.73
2018-10-15T08:33:40.494Z,8.33
2018-10-15T08:36:10.108Z,7.60
2018-10-15T08:38:39.203Z,8.23
2018-10-15T08:41:08.527Z,9.60
2018-10-15T08:43:37.718Z,8.50
2018-10-15T08:46:07.221Z,8.00
2018-10-15T08:48:36.419Z,8.60
2018-10-15T08:51:06.320Z,8.13
2018-10-15T08:53:35.424Z,10.80
2018-10-15T08:56:04.761Z,11.23
2018-10-15T08:58:34.875Z,7.90
2018-10-15T09:01:04.524Z,13.37
2018-10-15T09:03:33.608Z,12.00
2018-10-15T09:06:02.730Z,9.13
2018-10-15T09:08:31.931Z,10.00
2018-10-15T09:11:01.138Z,11.03
2018-10-15T09:13:30.222Z,8.80
2018-10-15T09:15:59.477Z,13.47
2018-10-15T09:18:28.940Z,7.83
2018-10-15T09:20:58.240Z,7.77
2018-10-15T09:23:27.352Z,7.80
2018-10-15T09:25:56.637Z,8.47
2018-10-15T09:28:26.146Z,8.13
2018-10-15T09:30:55.429Z,7.40
2018-10-15T09:33:24.658Z,7.87
2018-10-15T09:35:54.386Z,11.53
2018-10-15T09:38:24.051Z,8.33
2018-10-15T09:40:53.346Z,9.23
2018-10-15T09:43:22.543Z,8.10
2018-10-15T09:45:51.843Z,7.80
2018-10-15T09:48:20.834Z,8.60
2018-10-15T09:50:50.090Z,7.93
2018-10-15T09:53:19.453Z,7.67
2018-10-15T09:55:49.389Z,8.30
2018-10-15T09:58:19.225Z,29.10
2018-10-15T10:00:50.109Z,34.83
2018-10-15T10:03:19.347Z,21.50
2018-10-15T10:05:48.620Z,11.13
2018-10-15T10:08:17.913Z,13.37
2018-10-15T10:10:47.548Z,12.60
2018-10-15T10:13:16.859Z,9.70
2018-10-15T10:15:46.010Z,7.97
2018-10-15T10:18:15.628Z,8.07
2018-10-15T10:20:45.459Z,21.47
2018-10-15T10:23:14.692Z,24.43
2018-10-15T10:25:44.250Z,57.17
2018-10-15T10:28:13.530Z,54.50
2018-10-15T10:30:42.635Z,25.20
2018-10-15T10:33:12.454Z,12.27
2018-10-15T10:36:16.896Z,9.33
2018-10-15T10:38:52.139Z,8.50
2018-10-15T10:41:22.432Z,8.83
2018-10-15T10:43:52.266Z,8.90
2018-10-15T10:46:22.500Z,8.30
2018-10-15T10:48:52.439Z,7.93
2018-10-15T10:51:23.112Z,7.13
2018-10-15T10:53:53.132Z,7.27
2018-10-15T10:56:23.709Z,7.33
2018-10-15T10:58:53.775Z,7.20
2018-10-15T11:01:23.138Z,7.63
2018-10-15T11:03:52.314Z,8.07
2018-10-15T11:06:21.768Z,7.70
2018-10-15T11:08:51.625Z,9.40
2018-10-15T11:11:23.872Z,6.30
2018-10-15T11:16:19.915Z,8.40
2018-10-15T11:18:49.901Z,6.43
2018-10-15T11:21:19.292Z,6.93
2018-10-15T11:23:48.615Z,7.27
2018-10-15T11:26:17.776Z,8.93
2018-10-15T11:28:47.990Z,12.30
2018-10-15T11:31:17.594Z,7.17
2018-10-15T11:33:46.808Z,8.10
2018-10-15T11:36:16.028Z,6.63
2018-10-15T11:38:45.968Z,7.37
2018-10-15T11:41:15.132Z,7.47
2018-10-15T11:43:45.622Z,6.67
2018-10-15T11:46:14.705Z,7.13
2018-10-15T11:48:44.012Z,7.20
2018-10-15T11:51:13.239Z,7.00
2018-10-15T11:53:42.487Z,8.00
2018-10-15T11:56:11.614Z,6.30
2018-10-15T11:58:40.800Z,5.63
2018-10-15T12:01:10.151Z,6.03
2018-10-15T12:03:42.855Z,5.97
2018-10-15T12:06:18.502Z,7.50
2018-10-15T12:08:47.895Z,6.67
2018-10-15T12:11:17.248Z,6.27
2018-10-15T12:13:46.348Z,6.50
2018-10-15T12:16:15.488Z,5.93
2018-10-15T12:18:44.635Z,8.00
2018-10-15T12:21:13.737Z,7.43
2018-10-15T12:23:42.902Z,6.30
2018-10-15T12:26:12.075Z,6.17
2018-10-15T12:28:41.879Z,9.80
2018-10-15T12:31:11.125Z,8.37
2018-10-15T12:33:40.323Z,6.10
2018-10-15T12:36:09.526Z,6.40
2018-10-15T12:38:38.657Z,5.37
2018-10-15T12:41:08.221Z,5.20
2018-10-15T12:43:37.346Z,7.57
2018-10-15T12:46:06.530Z,5.70
2018-10-15T12:48:35.663Z,7.13
2018-10-15T12:51:05.379Z,7.53
2018-10-15T12:53:34.734Z,6.97
2018-10-15T12:56:03.851Z,7.93
2018-10-15T12:58:33.119Z,7.13
2018-10-15T13:01:02.251Z,6.67
2018-10-15T13:03:31.383Z,7.33
2018-10-15T13:06:00.732Z,6.87
2018-10-15T13:08:30.510Z,5.40
2018-10-15T13:10:59.725Z,7.03
2018-10-15T13:13:29.566Z,5.20
2018-10-15T13:15:59.395Z,5.97
2018-10-15T13:18:28.560Z,9.83
2018-10-15T13:20:57.759Z,7.20
2018-10-15T13:23:26.975Z,5.90
2018-10-15T13:25:56.723Z,9.40
2018-10-15T13:28:26.248Z,5.70
2018-10-15T13:30:55.576Z,6.43
2018-10-15T13:33:25.344Z,7.83
2018-10-15T13:35:54.451Z,5.90
2018-10-15T13:38:23.700Z,6.27
2018-10-15T13:40:52.855Z,6.83
2018-10-15T13:43:22.011Z,8.80
2018-10-15T13:45:51.187Z,10.60
2018-10-15T13:48:21.265Z,5.37
2018-10-15T13:50:50.431Z,6.57
2018-10-15T13:53:19.579Z,12.50
2018-10-15T13:55:49.370Z,6.07
2018-10-15T13:58:18.500Z,5.70
2018-10-15T14:00:47.894Z,7.83
2018-10-15T14:03:18.581Z,5.37
2018-10-15T14:05:47.813Z,5.60
2018-10-15T14:08:17.015Z,5.50
2018-10-15T14:10:47.055Z,7.77
2018-10-15T14:13:16.327Z,5.50
2018-10-15T14:15:45.491Z,7.00
2018-10-15T14:18:14.704Z,6.13
2018-10-15T14:20:43.907Z,5.93
2018-10-15T14:23:13.154Z,5.57
2018-10-15T14:25:42.247Z,10.30
2018-10-15T14:28:11.903Z,6.70
2018-10-15T14:30:41.116Z,8.47
2018-10-15T14:33:10.248Z,6.20
2018-10-15T14:35:39.483Z,6.60
2018-10-15T14:38:09.345Z,7.37
2018-10-15T14:40:41.437Z,7.33
2018-10-15T14:43:11.251Z,5.83
2018-10-15T14:45:40.396Z,5.83
2018-10-15T14:48:09.748Z,5.20
2018-10-15T14:50:38.989Z,5.93
2018-10-15T14:53:08.152Z,5.60
2018-10-15T14:55:37.242Z,6.33
2018-10-15T14:58:06.539Z,5.83
2018-10-15T15:00:35.675Z,8.80
2018-10-15T15:03:05.675Z,5.30
2018-10-15T15:05:34.754Z,5.10
2018-10-15T15:08:04.060Z,5.13
2018-10-15T15:10:44.474Z,12.43
2018-10-15T15:13:24.865Z,5.72
2018-10-15T15:15:53.917Z,7.10
2018-10-15T15:18:23.124Z,5.70
2018-10-15T15:20:52.272Z,8.10
2018-10-15T15:23:21.401Z,5.53
2018-10-15T15:25:50.580Z,5.77
2018-10-15T15:28:19.754Z,5.60
2018-10-15T15:30:49.009Z,5.67
2018-10-15T15:33:18.171Z,5.63
2018-10-15T15:35:47.904Z,5.83
2018-10-15T15:38:17.016Z,6.40
2018-10-15T15:40:46.930Z,7.30
2018-10-15T15:43:16.226Z,7.13
2018-10-15T15:45:45.454Z,5.50
2018-10-15T15:48:15.602Z,5.90
2018-10-15T15:50:45.310Z,7.93
2018-10-15T15:53:14.671Z,6.50
2018-10-15T15:55:44.080Z,9.60
2018-10-15T15:58:13.298Z,7.23
2018-10-15T16:00:42.591Z,5.10
2018-10-15T16:03:12.175Z,6.10
2018-10-15T16:05:41.393Z,6.33
2018-10-15T16:08:10.621Z,6.23
2018-10-15T16:10:39.922Z,6.10
2018-10-15T16:13:09.310Z,5.30
2018-10-15T16:15:39.288Z,6.20
2018-10-15T16:18:08.457Z,5.53
2018-10-15T16:20:37.747Z,6.30
2018-10-15T16:23:07.098Z,6.80
2018-10-15T16:25:36.401Z,6.27
2018-10-15T16:28:06.092Z,6.43
2018-10-15T16:30:35.289Z,6.10
2018-10-15T16:33:05.228Z,7.07
2018-10-15T16:35:34.427Z,6.70
2018-10-15T16:38:03.736Z,6.27
2018-10-15T16:40:32.870Z,6.97
2018-10-15T16:43:02.273Z,6.83
2018-10-15T16:45:31.952Z,6.90
2018-10-15T16:48:01.236Z,7.07
2018-10-15T16:50:30.643Z,7.03
2018-10-15T16:52:59.816Z,6.20
2018-10-15T16:55:29.348Z,5.97
2018-10-15T16:57:58.612Z,7.80
2018-10-15T17:00:28.576Z,5.83
2018-10-15T17:02:57.732Z,6.53
2018-10-15T17:05:27.747Z,5.93
2018-10-15T17:07:57.554Z,9.50
2018-10-15T17:10:27.908Z,6.50
2018-10-15T17:12:57.128Z,8.50
2018-10-15T17:15:29.206Z,8.27
2018-10-15T17:17:58.782Z,7.30
2018-10-15T17:20:28.805Z,6.90
2018-10-15T17:22:58.243Z,6.40
2018-10-15T17:25:27.429Z,7.83
2018-10-15T17:27:56.664Z,7.00
2018-10-15T17:30:26.246Z,6.22
2018-10-15T17:32:55.452Z,9.93
2018-10-15T17:35:24.818Z,7.30
2018-10-15T17:37:54.279Z,7.07
2018-10-15T17:40:23.570Z,8.93
2018-10-15T17:42:52.946Z,7.03
2018-10-15T17:45:22.248Z,7.50
2018-10-15T17:47:51.558Z,13.80
2018-10-15T17:50:21.651Z,22.70
2018-10-15T17:52:50.949Z,9.50
2018-10-15T17:55:20.418Z,7.70
2018-10-15T17:57:49.501Z,7.30
2018-10-15T18:00:21.223Z,7.40
2018-10-15T18:02:51.468Z,17.03
2018-10-15T18:05:21.306Z,20.33
2018-10-15T18:07:50.548Z,7.47
2018-10-15T18:10:19.732Z,8.97
2018-10-15T18:12:49.034Z,8.17
2018-10-15T18:15:18.206Z,9.30
2018-10-15T18:17:47.463Z,10.90
2018-10-15T18:20:16.749Z,10.13
2018-10-15T18:22:46.267Z,12.47
2018-10-15T18:25:16.848Z,10.83
2018-10-15T18:27:46.023Z,13.03
2018-10-15T18:30:16.196Z,9.53
2018-10-15T18:32:46.487Z,13.10
2018-10-15T18:35:16.380Z,11.30
2018-10-15T18:37:46.665Z,12.03
2018-10-15T18:40:16.182Z,10.80
2018-10-15T18:42:45.461Z,11.33
2018-10-15T18:45:15.905Z,11.27
2018-10-15T18:47:45.226Z,11.63
2018-10-15T18:50:15.609Z,11.63
2018-10-15T18:52:44.794Z,11.57
2018-10-15T18:55:14.632Z,13.37
2018-10-15T18:57:45.418Z,11.00
2018-10-15T19:00:15.190Z,11.50
2018-10-15T19:02:44.872Z,11.27
2018-10-15T19:05:14.768Z,14.20
2018-10-15T19:07:45.224Z,11.90
2018-10-15T19:10:14.494Z,8.80
2018-10-15T19:12:43.860Z,13.33
2018-10-15T19:15:13.889Z,9.60
2018-10-15T19:17:43.327Z,10.00
2018-10-15T19:20:14.611Z,9.97
2018-10-15T19:22:44.394Z,9.47
2018-10-15T19:25:13.673Z,8.73
2018-10-15T19:27:42.842Z,9.40
2018-10-15T19:30:14.033Z,19.30
2018-10-15T19:32:44.096Z,15.67
2018-10-15T19:35:13.882Z,8.40
2018-10-15T19:37:43.235Z,10.73
2018-10-15T19:40:13.370Z,8.83
2018-10-15T19:42:42.735Z,9.27
2018-10-15T19:45:12.164Z,10.27
2018-10-15T19:47:42.572Z,9.20
2018-10-15T19:50:11.785Z,9.30
2018-10-15T19:52:41.563Z,9.80
2018-10-15T19:55:11.516Z,9.50
2018-10-15T19:57:42.298Z,8.97
2018-10-15T20:00:14.572Z,11.43
2018-10-15T20:02:44.478Z,8.17
2018-10-15T20:05:13.943Z,7.10
2018-10-15T20:07:45.215Z,8.17
2018-10-15T20:10:15.715Z,7.43
2018-10-15T20:12:45.768Z,7.67
2018-10-15T20:15:14.963Z,7.63
2018-10-15T20:17:45.009Z,9.73
2018-10-15T20:20:14.227Z,8.67
2018-10-15T20:22:43.384Z,13.10
2018-10-15T20:25:13.089Z,10.93
2018-10-15T20:45:17.457Z,8.57
2018-10-15T20:47:46.979Z,9.20
2018-10-15T20:50:16.804Z,10.20
2018-10-15T20:52:46.683Z,8.90
2018-10-15T20:55:15.911Z,9.60
2018-10-15T20:57:45.304Z,10.03
2018-10-15T21:00:14.439Z,9.30
2018-10-15T21:02:44.972Z,9.80
2018-10-15T21:05:14.291Z,10.77
2018-10-15T21:07:43.622Z,10.20
2018-10-15T21:10:14.064Z,10.57
2018-10-15T21:12:43.794Z,8.57
2018-10-15T21:15:13.018Z,11.13
2018-10-15T21:17:42.411Z,12.90
2018-10-15T21:20:12.870Z,9.67
2018-10-15T21:22:42.368Z,10.17
2018-10-15T21:25:12.457Z,10.90
2018-10-15T21:27:42.296Z,10.83
2018-10-15T21:30:12.595Z,10.80
2018-10-15T21:32:42.343Z,12.43
2018-10-15T21:35:12.103Z,11.53
2018-10-15T21:37:41.179Z,10.70
2018-10-15T21:40:10.416Z,12.43
2018-10-15T21:42:40.874Z,12.03
2018-10-15T21:45:10.638Z,11.50
2018-10-15T21:47:39.844Z,12.07
2018-10-15T21:50:10.967Z,12.17
2018-10-15T21:52:46.947Z,13.47
2018-10-15T21:55:16.200Z,13.70
2018-10-15T21:57:45.333Z,11.60
2018-10-15T22:00:16.349Z,11.90
2018-10-15T22:02:45.616Z,11.83
2018-10-15T22:05:14.921Z,11.30
2018-10-15T22:07:44.097Z,12.60
2018-10-15T22:10:18.540Z,12.80
2018-10-15T22:12:47.686Z,13.27
2018-10-15T22:15:16.818Z,12.13
2018-10-15T22:17:46.012Z,12.67
2018-10-15T22:20:15.279Z,12.30
2018-10-15T22:22:44.367Z,11.70
2018-10-15T22:25:13.493Z,13.00
2018-10-15T22:27:42.613Z,11.97
2018-10-15T22:30:12.694Z,13.60
2018-10-15T22:32:41.818Z,9.70
2018-10-15T22:35:11.403Z,13.47
2018-10-15T22:37:40.516Z,12.40
2018-10-15T22:40:10.652Z,15.00
2018-10-15T22:42:40.187Z,11.13
2018-10-15T22:45:11.433Z,11.00
2018-10-15T22:47:41.318Z,11.10
2018-10-15T22:50:10.441Z,15.03
2018-10-15T22:52:39.554Z,22.03
2018-10-15T22:55:09.492Z,12.87
2018-10-15T22:57:38.588Z,11.37
2018-10-15T23:00:13.463Z,16.13
2018-10-15T23:02:42.600Z,13.30
2018-10-15T23:05:11.728Z,12.27
2018-10-15T23:07:41.462Z,11.93
2018-10-15T23:10:15.832Z,13.20
2018-10-15T23:12:45.679Z,15.00
2018-10-15T23:15:14.831Z,11.50
2018-10-15T23:17:43.993Z,12.63
2018-10-15T23:20:13.178Z,16.40
2018-10-15T23:22:42.262Z,10.73
2018-10-15T23:25:11.922Z,12.90
2018-10-15T23:27:41.073Z,11.93
2018-10-15T23:30:11.576Z,11.20
2018-10-15T23:32:41.872Z,11.13
2018-10-15T23:35:11.563Z,10.97
2018-10-15T23:37:41.691Z,10.90
2018-10-15T23:40:12.222Z,12.97
2018-10-15T23:42:41.488Z,11.50
2018-10-15T23:45:11.784Z,12.00
2018-10-15T23:47:41.263Z,11.73
2018-10-15T23:50:12.867Z,11.67
2018-10-15T23:52:42.112Z,12.13
2018-10-15T23:55:12.689Z,11.20
2018-10-15T23:57:41.852Z,11.83
